Details From TNCM - St Maarten - Princess Juliana Intl
To TNCE - St Eustatius/F D Roosevelt
Flight Number -
Tags generated
Created
Modified
Stats Distance 34 nm / 63 km
Max Altitude 100 ft / 30 m
Waypoints 3
Social Downloads 0
Likes 0
Share VATSIM

Download

Looking for another format? Having issues loading an existing format? Contact us
Advertisement - Login to hide

Notes

Basic altitude profile: - Ascent Rate: 2500ft/min - Ascent Speed: 250kts - Cruise Altitude: 35000ft - Cruise Speed: 420kts - Descent Rate: 1500ft/min - Descent Speed: 250kts Options: - Use NATs: yes - Use PACOTS: yes - Use low airways: yes - Use high airways: yes

Route

TNCM PJM TNCE

ID Type Via Altitude Latitude Longitude Leg Dist Tot Dist Heading (true) Name
O TNCM APT - 0 ft / 0 m 18.04089˚ -63.10897˚ - 0 nm - St Maarten - Princess Juliana Intl
PJM VOR - 100 ft / 30 m 18.03811˚ -63.11828˚ 0 nm 0 nm 253° / 253° ST MAARTEN VOR-DME
O TNCE APT - 0 ft / 0 m 17.49649˚ -62.97944˚ 33 nm 34 nm 166° / 166° St Eustatius/F D Roosevelt

Altitude Profile

Advertisement - Login to hide

TNCM

Details ICAO TNCM (SXM)
Name St Maarten - Princess Juliana Intl
Region Caribbean Netherlands, Aruba, Curaçao, Sint Maarten
Timezone Unknown (UTC+0.0)
Stats Elevation 12 ft / 4 m (AMSL)
Location 18.040889° -63.108974°
Runways 1
Magnetic Variation 14.325° W

METAR

TNCM 111700Z 06010KT 030V090 9999 FEW020 29/20 Q1012 A2990 NOSIG

Decode

TAF

TAF TNCM 111141Z 1112/1212 06010KT P6SM FEW020

Decode

Departure Runways

ID Width Length Bearing (true) Bearing (mag) Surface Threshold Offset Overrun Length
10 148 ft / 45 m 7,464 ft / 2,275 m 81.43° 95.75° Asphalt 0 ft / 0 m 151 ft / 46 m
28 148 ft / 45 m 7,464 ft / 2,275 m 261.44° 275.76° Asphalt 397 ft / 121 m 0 ft / 0 m

TNCE

Details ICAO TNCE (EUX)
Name St Eustatius/F D Roosevelt
Region Caribbean Netherlands, Aruba, Curaçao, Sint Maarten
Timezone America/Curacao (UTC-4.0)
Stats Elevation 129 ft / 39 m (AMSL)
Location 17.496492° -62.979439°
Runways 1
Magnetic Variation 14.361° W

METAR

TNCE 111655Z AUTO 06011KT 010V090 //// // ///////// 28/22 Q1012 RE//

Decode

TAF

Not found

Destination Runways

ID Width Length Bearing (true) Bearing (mag) Surface Threshold Offset Overrun Length
06 98 ft / 30 m 4,302 ft / 1,311 m 49.97° 64.33° Asphalt 0 ft / 0 m 0 ft / 0 m
24 98 ft / 30 m 4,302 ft / 1,311 m 229.97° 244.33° Asphalt 0 ft / 0 m 0 ft / 0 m

Popular Alternatives